createdAt,value
2022-09-27T00:01:48.385Z,9.55
2022-09-27T00:04:15.151Z,8.93
2022-09-27T00:06:41.644Z,5.47
2022-09-27T00:09:10.005Z,15.23
2022-09-27T00:11:39.517Z,5.90
2022-09-27T00:14:07.290Z,5.82
2022-09-27T00:16:36.902Z,7.47
2022-09-27T00:19:10.371Z,8.88
2022-09-27T00:21:37.158Z,4.55
2022-09-27T00:24:04.125Z,6.43
2022-09-27T00:26:30.679Z,10.60
2022-09-27T00:28:57.909Z,7.75
2022-09-27T00:31:30.340Z,10.27
2022-09-27T00:34:00.128Z,9.48
2022-09-27T00:36:27.908Z,4.95
2022-09-27T00:38:55.418Z,7.50
2022-09-27T00:41:25.233Z,6.05
2022-09-27T00:43:56.053Z,8.57
2022-09-27T00:46:30.056Z,8.07
2022-09-27T00:49:23.401Z,9.35
2022-09-27T00:51:55.965Z,12.93
2022-09-27T00:54:26.483Z,29.85
2022-09-27T00:56:53.775Z,11.68
2022-09-27T00:59:26.602Z,10.05
2022-09-27T01:01:53.239Z,9.88
2022-09-27T01:04:26.748Z,7.95
2022-09-27T01:06:53.306Z,16.20
2022-09-27T01:09:20.966Z,10.55
2022-09-27T01:12:24.491Z,8.15
2022-09-27T01:15:09.811Z,10.18
2022-09-27T01:17:45.295Z,12.25
2022-09-27T01:20:47.307Z,11.77
2022-09-27T01:23:29.034Z,6.45
2022-09-27T01:26:14.454Z,11.40
2022-09-27T01:28:56.254Z,8.30
2022-09-27T01:31:47.079Z,9.13
2022-09-27T01:34:16.330Z,7.75
2022-09-27T01:36:49.031Z,6.03
2022-09-27T01:39:56.998Z,7.38
2022-09-27T01:42:39.652Z,11.45
2022-09-27T01:45:19.038Z,6.78
2022-09-27T01:47:55.393Z,5.40
2022-09-27T01:50:45.813Z,8.48
2022-09-27T01:53:18.978Z,11.30
2022-09-27T01:55:48.816Z,7.28
2022-09-27T01:58:26.632Z,6.50
2022-09-27T02:00:54.606Z,4.88
2022-09-27T02:03:28.467Z,6.32
2022-09-27T02:06:04.287Z,4.28
2022-09-27T02:08:40.255Z,8.10
2022-09-27T02:11:11.365Z,4.78
2022-09-27T02:13:44.200Z,3.28
2022-09-27T02:16:20.237Z,5.30
2022-09-27T02:19:15.979Z,7.32
2022-09-27T02:22:07.300Z,11.15
2022-09-27T02:24:50.891Z,11.35
2022-09-27T02:27:25.284Z,5.85
2022-09-27T02:30:02.042Z,6.10
2022-09-27T02:32:29.276Z,5.18
2022-09-27T02:35:00.112Z,7.45
2022-09-27T02:37:26.775Z,4.20
2022-09-27T02:39:53.306Z,3.30
2022-09-27T02:42:19.934Z,3.28
2022-09-27T02:44:46.565Z,4.45
2022-09-27T02:47:28.338Z,3.58
2022-09-27T02:50:13.075Z,4.20
2022-09-27T02:53:09.749Z,6.07
2022-09-27T02:55:51.014Z,7.53
2022-09-27T02:58:40.124Z,4.57
2022-09-27T03:01:25.932Z,6.60
2022-09-27T03:04:08.076Z,4.00
2022-09-27T03:06:36.426Z,11.75
2022-09-27T03:09:03.143Z,7.53
2022-09-27T03:11:29.674Z,5.07
2022-09-27T03:14:08.409Z,8.85
2022-09-27T03:16:35.858Z,6.65
2022-09-27T03:19:02.464Z,5.90
2022-09-27T03:21:29.251Z,7.88
2022-09-27T03:23:55.770Z,36.15
2022-09-27T03:26:22.318Z,7.82
2022-09-27T03:28:49.146Z,5.28
2022-09-27T03:31:15.767Z,4.85
2022-09-27T03:33:42.357Z,9.95
2022-09-27T03:36:08.894Z,11.75
2022-09-27T03:38:35.433Z,8.13
2022-09-27T03:41:02.035Z,6.72
2022-09-27T03:43:28.619Z,5.70
2022-09-27T03:45:55.183Z,7.95
2022-09-27T03:48:27.144Z,9.45
2022-09-27T03:50:54.620Z,7.25
2022-09-27T03:53:21.193Z,16.02
2022-09-27T03:55:48.082Z,8.57
2022-09-27T03:58:14.955Z,12.25
2022-09-27T04:00:41.672Z,10.57
2022-09-27T04:03:08.248Z,12.93
2022-09-27T04:05:34.781Z,7.97
2022-09-27T04:08:01.481Z,8.45
2022-09-27T04:10:27.990Z,7.03
2022-09-27T04:12:54.571Z,7.72
2022-09-27T04:15:21.220Z,4.32
2022-09-27T04:17:47.751Z,6.20
2022-09-27T04:20:14.503Z,7.75
2022-09-27T04:22:44.102Z,5.97
2022-09-27T04:25:10.627Z,10.70
2022-09-27T04:27:37.954Z,9.63
2022-09-27T04:30:06.474Z,8.68
2022-09-27T04:32:33.045Z,4.65
2022-09-27T04:35:18.196Z,8.30
2022-09-27T04:37:46.171Z,6.80
2022-09-27T04:40:12.892Z,8.20
2022-09-27T04:42:39.536Z,6.90
2022-09-27T04:45:06.753Z,13.70
2022-09-27T04:47:34.157Z,7.93
2022-09-27T04:50:00.667Z,7.80
2022-09-27T04:52:27.182Z,9.25
2022-09-27T04:54:53.853Z,7.97
2022-09-27T04:57:20.411Z,7.07
2022-09-27T04:59:46.936Z,8.35
2022-09-27T05:02:13.471Z,6.72
2022-09-27T05:04:39.997Z,9.38
2022-09-27T05:07:06.577Z,8.82
2022-09-27T05:09:33.122Z,6.60
2022-09-27T05:11:59.624Z,6.70
2022-09-27T05:14:27.292Z,4.70
2022-09-27T05:16:55.572Z,3.28
2022-09-27T05:19:22.310Z,5.15
2022-09-27T05:21:48.976Z,7.25
2022-09-27T05:24:15.499Z,3.78
2022-09-27T05:26:42.190Z,3.50
2022-09-27T05:29:08.876Z,9.70
2022-09-27T05:31:35.474Z,8.82
2022-09-27T05:34:02.080Z,2.53
2022-09-27T05:36:28.700Z,6.97
2022-09-27T05:38:55.373Z,5.45
2022-09-27T05:41:21.986Z,3.38
2022-09-27T05:43:48.542Z,3.00
2022-09-27T05:46:15.106Z,9.55
2022-09-27T05:48:41.675Z,3.63
2022-09-27T05:51:08.308Z,2.88
2022-09-27T05:53:34.892Z,3.25
2022-09-27T05:56:04.087Z,3.88
2022-09-27T05:58:30.719Z,5.80
2022-09-27T06:00:57.517Z,4.40
2022-09-27T06:03:24.042Z,3.55
2022-09-27T06:05:51.482Z,2.65
2022-09-27T06:08:20.364Z,8.20
2022-09-27T06:10:47.490Z,2.88
2022-09-27T06:13:15.763Z,7.85
2022-09-27T06:15:44.835Z,6.03
2022-09-27T06:18:14.343Z,3.85
2022-09-27T06:20:42.995Z,4.80
2022-09-27T06:23:12.414Z,5.65
2022-09-27T06:25:39.807Z,2.90
2022-09-27T06:28:06.543Z,6.18
2022-09-27T06:30:33.140Z,2.83
2022-09-27T06:33:01.785Z,7.13
2022-09-27T06:35:29.920Z,3.83
2022-09-27T06:37:56.927Z,3.80
2022-09-27T06:40:27.489Z,4.35
2022-09-27T06:42:54.272Z,3.05
2022-09-27T06:45:20.888Z,2.70
2022-09-27T06:47:47.415Z,3.22
2022-09-27T06:50:14.067Z,2.63
2022-09-27T06:52:48.582Z,5.85
2022-09-27T06:55:15.921Z,2.67
2022-09-27T06:58:01.041Z,3.92
2022-09-27T07:00:28.138Z,1.95
2022-09-27T07:03:01.010Z,6.00
2022-09-27T07:05:29.334Z,4.75
2022-09-27T07:07:59.715Z,3.72
2022-09-27T07:10:30.140Z,2.13
2022-09-27T07:12:56.767Z,3.15
2022-09-27T07:15:23.337Z,8.45
2022-09-27T07:17:59.968Z,4.75
2022-09-27T07:20:27.217Z,7.20
2022-09-27T07:22:53.844Z,5.78
2022-09-27T07:25:20.542Z,4.05
2022-09-27T07:27:47.291Z,1.95
2022-09-27T07:30:14.375Z,5.40
2022-09-27T07:32:41.099Z,3.25
2022-09-27T07:35:08.713Z,2.95
2022-09-27T07:37:37.447Z,2.88
2022-09-27T07:40:07.585Z,3.90
2022-09-27T07:42:34.394Z,4.70
2022-09-27T07:45:00.919Z,6.13
2022-09-27T07:47:27.639Z,3.35
2022-09-27T07:49:54.162Z,6.70
2022-09-27T07:52:20.746Z,2.22
2022-09-27T07:54:47.782Z,2.38
2022-09-27T07:57:15.544Z,4.07
2022-09-27T07:59:42.342Z,5.65
2022-09-27T08:02:17.380Z,5.40
2022-09-27T08:07:14.280Z,5.25
2022-09-27T08:09:41.454Z,2.33
2022-09-27T08:12:08.442Z,4.00
2022-09-27T08:14:40.985Z,4.32
2022-09-27T08:17:12.824Z,1.67
2022-09-27T08:19:40.698Z,3.47
2022-09-27T08:22:12.082Z,7.00
2022-09-27T08:24:38.593Z,4.25
2022-09-27T08:27:10.789Z,3.47
2022-09-27T08:29:41.953Z,4.07
2022-09-27T08:32:10.084Z,4.95
2022-09-27T08:34:36.989Z,5.13
2022-09-27T08:37:04.351Z,4.70
2022-09-27T08:39:31.507Z,5.15
2022-09-27T08:42:19.290Z,5.97
2022-09-27T08:45:17.822Z,4.05
2022-09-27T08:47:57.134Z,8.15
2022-09-27T08:50:39.767Z,5.78
2022-09-27T08:53:33.968Z,5.25
2022-09-27T08:56:03.482Z,6.53
2022-09-27T08:58:41.120Z,9.68
2022-09-27T09:01:14.978Z,2.65
2022-09-27T09:03:52.279Z,7.70
2022-09-27T09:06:39.861Z,3.72
2022-09-27T09:09:12.341Z,3.83
2022-09-27T09:12:35.719Z,4.10
2022-09-27T09:15:11.157Z,3.53
2022-09-27T09:17:49.624Z,4.95
2022-09-27T09:20:50.116Z,2.47
2022-09-27T09:23:35.099Z,6.20
2022-09-27T09:26:26.164Z,4.28
2022-09-27T09:29:17.378Z,2.78
2022-09-27T09:32:10.894Z,5.72
2022-09-27T09:34:47.063Z,4.15
2022-09-27T09:37:17.846Z,2.13
2022-09-27T09:39:53.829Z,5.10
2022-09-27T09:42:31.477Z,5.50
2022-09-27T09:45:13.468Z,3.17
2022-09-27T09:47:51.554Z,2.75
2022-09-27T09:50:24.536Z,3.65
2022-09-27T09:53:16.703Z,3.05
2022-09-27T09:55:51.817Z,2.35
2022-09-27T10:00:48.092Z,4.10
2022-09-27T10:03:14.683Z,9.20
2022-09-27T10:05:44.895Z,9.57
2022-09-27T10:08:18.822Z,3.75
2022-09-27T10:10:45.568Z,2.85
2022-09-27T10:13:17.443Z,4.68
2022-09-27T10:15:53.627Z,9.65
2022-09-27T10:18:21.018Z,7.53
2022-09-27T10:20:55.720Z,4.63
2022-09-27T10:23:25.230Z,3.35
2022-09-27T10:26:00.501Z,2.78
2022-09-27T10:28:29.678Z,6.93
2022-09-27T10:30:58.155Z,3.03
2022-09-27T10:33:25.139Z,4.20
2022-09-27T10:35:51.687Z,6.75
2022-09-27T10:38:30.223Z,10.15
2022-09-27T10:40:59.522Z,5.43
2022-09-27T10:43:37.118Z,5.30
2022-09-27T10:46:09.439Z,6.53
2022-09-27T10:48:39.355Z,5.45
2022-09-27T10:51:08.075Z,6.78
2022-09-27T10:53:37.011Z,7.40
2022-09-27T10:56:03.689Z,4.55
2022-09-27T10:58:38.170Z,5.07
2022-09-27T11:01:08.452Z,7.93
2022-09-27T11:03:57.352Z,7.40
2022-09-27T11:06:23.829Z,8.30
2022-09-27T11:08:52.544Z,5.00
2022-09-27T11:11:26.093Z,7.20
2022-09-27T11:14:17.923Z,5.07
2022-09-27T11:17:05.522Z,8.70
2022-09-27T11:20:07.660Z,8.23
2022-09-27T11:22:58.558Z,13.48
2022-09-27T11:25:45.743Z,6.13
2022-09-27T11:28:14.976Z,10.95
2022-09-27T11:31:19.477Z,5.90
2022-09-27T11:33:55.631Z,7.35
2022-09-27T11:36:34.384Z,7.68
2022-09-27T11:39:20.721Z,9.57
2022-09-27T11:42:14.298Z,8.20
2022-09-27T11:45:27.782Z,7.88
2022-09-27T11:48:01.580Z,8.20
2022-09-27T11:51:06.547Z,9.85
2022-09-27T11:54:02.187Z,11.25
2022-09-27T11:56:59.352Z,9.63
2022-09-27T11:59:44.314Z,8.32
2022-09-27T12:02:25.857Z,9.60
2022-09-27T12:05:16.529Z,11.57
2022-09-27T12:07:59.516Z,10.10
2022-09-27T12:10:26.126Z,9.77
2022-09-27T12:12:56.318Z,9.43
2022-09-27T12:15:27.195Z,13.68
2022-09-27T12:18:00.148Z,9.25
2022-09-27T12:20:35.025Z,11.45
2022-09-27T12:23:07.520Z,10.52
2022-09-27T12:25:37.651Z,11.60
2022-09-27T12:28:12.166Z,14.07
2022-09-27T12:30:44.970Z,10.77
2022-09-27T12:33:26.467Z,12.73
2022-09-27T12:35:57.712Z,16.02
2022-09-27T12:39:12.169Z,17.67
2022-09-27T12:41:43.576Z,13.23
2022-09-27T12:44:12.074Z,16.10
2022-09-27T12:47:06.498Z,16.70
2022-09-27T12:50:09.820Z,16.38
2022-09-27T12:52:44.950Z,15.32
2022-09-27T12:55:47.432Z,18.08
2022-09-27T12:58:19.896Z,13.80
2022-09-27T13:00:58.187Z,16.00
2022-09-27T13:03:46.227Z,13.63
2022-09-27T13:06:39.089Z,16.98
2022-09-27T13:09:11.898Z,16.35
2022-09-27T13:11:59.053Z,18.95
2022-09-27T13:14:28.772Z,17.75
2022-09-27T13:16:55.335Z,22.48
2022-09-27T13:19:44.156Z,16.33
2022-09-27T13:22:38.027Z,15.13
2022-09-27T13:25:42.786Z,21.40
2022-09-27T13:28:36.011Z,17.55
2022-09-27T13:31:03.845Z,16.65
2022-09-27T13:33:45.402Z,21.38
2022-09-27T13:36:24.610Z,16.95
2022-09-27T13:39:06.086Z,23.33
2022-09-27T13:41:35.384Z,20.85
2022-09-27T13:44:14.508Z,20.50
2022-09-27T13:46:56.024Z,16.42
2022-09-27T13:49:25.464Z,17.27
2022-09-27T13:51:59.575Z,17.85
2022-09-27T13:54:40.010Z,21.30
2022-09-27T13:57:45.649Z,18.90
2022-09-27T14:00:39.839Z,20.30
2022-09-27T14:03:12.394Z,28.60
2022-09-27T14:05:47.612Z,16.08
2022-09-27T14:10:55.567Z,19.48
2022-09-27T14:13:25.490Z,18.52
2022-09-27T14:15:54.896Z,21.65
2022-09-27T14:18:22.410Z,20.27
2022-09-27T14:20:52.720Z,21.63
2022-09-27T14:23:23.221Z,22.65
2022-09-27T14:25:52.134Z,26.80
2022-09-27T14:28:29.033Z,21.02
2022-09-27T14:31:16.626Z,18.70
2022-09-27T14:33:44.544Z,17.30
2022-09-27T14:36:54.030Z,19.52
2022-09-27T14:39:32.378Z,18.52
2022-09-27T14:42:00.157Z,16.75
2022-09-27T14:44:28.516Z,18.83
2022-09-27T14:47:17.706Z,20.23
2022-09-27T14:50:17.794Z,19.88
2022-09-27T14:52:44.838Z,21.80
2022-09-27T14:55:20.822Z,20.80
2022-09-27T14:57:53.960Z,25.52
2022-09-27T15:00:32.627Z,22.75
2022-09-27T15:03:03.177Z,22.80
2022-09-27T15:05:32.726Z,24.02
2022-09-27T15:08:03.948Z,22.85
2022-09-27T15:10:32.879Z,20.75
2022-09-27T15:13:01.767Z,18.40
2022-09-27T15:15:33.696Z,23.55
2022-09-27T15:18:01.468Z,22.33
2022-09-27T15:20:32.162Z,20.55
2022-09-27T15:23:05.630Z,21.52
2022-09-27T15:25:39.554Z,19.33
2022-09-27T15:28:12.106Z,21.20
2022-09-27T15:30:43.660Z,21.17
2022-09-27T15:33:28.650Z,22.67
2022-09-27T15:35:57.700Z,17.55
2022-09-27T15:38:36.399Z,22.90
2022-09-27T15:41:10.063Z,19.80
2022-09-27T15:43:40.098Z,19.77
2022-09-27T15:46:27.732Z,27.80
2022-09-27T15:49:35.594Z,19.30
2022-09-27T15:52:05.173Z,23.52
2022-09-27T15:54:35.770Z,24.83
2022-09-27T15:57:05.375Z,22.35
2022-09-27T15:59:35.302Z,22.83
2022-09-27T16:02:10.237Z,19.35
2022-09-27T16:04:36.780Z,22.45
2022-09-27T16:07:05.075Z,19.90
2022-09-27T16:09:32.021Z,19.90
2022-09-27T16:11:58.540Z,22.15
2022-09-27T16:14:25.072Z,22.15
2022-09-27T16:16:59.176Z,24.17
2022-09-27T16:19:25.871Z,18.20
2022-09-27T16:21:52.415Z,18.98
2022-09-27T16:24:18.917Z,21.60
2022-09-27T16:26:45.538Z,17.85
2022-09-27T16:29:14.767Z,24.42
2022-09-27T16:31:42.700Z,24.98
2022-09-27T16:34:10.375Z,22.08
2022-09-27T16:36:37.517Z,19.55
2022-09-27T16:39:07.240Z,15.68
2022-09-27T16:41:34.867Z,15.00
2022-09-27T16:44:11.120Z,22.50
2022-09-27T16:46:41.860Z,20.27
2022-09-27T16:49:28.622Z,24.30
2022-09-27T16:52:01.037Z,19.80
2022-09-27T16:54:30.968Z,20.88
2022-09-27T16:56:58.700Z,25.05
2022-09-27T16:59:25.736Z,19.38
2022-09-27T17:01:53.061Z,20.85
2022-09-27T17:04:19.624Z,20.00
2022-09-27T17:06:46.286Z,18.05
2022-09-27T17:09:13.093Z,16.00
2022-09-27T17:11:39.670Z,21.33
2022-09-27T17:14:06.252Z,17.48
2022-09-27T17:16:33.095Z,17.38
2022-09-27T17:18:59.782Z,16.58
2022-09-27T17:21:26.311Z,20.88
2022-09-27T17:23:53.695Z,26.80
2022-09-27T17:26:22.578Z,16.38
2022-09-27T17:28:50.151Z,22.95
2022-09-27T17:31:18.868Z,17.10
2022-09-27T17:33:48.233Z,15.13
2022-09-27T17:36:17.855Z,19.75
2022-09-27T17:38:45.723Z,17.13
2022-09-27T17:41:14.757Z,16.88
2022-09-27T17:43:51.987Z,25.88
2022-09-27T17:46:23.688Z,19.38
2022-09-27T17:49:09.648Z,19.98
2022-09-27T17:51:38.936Z,17.23
2022-09-27T17:54:07.430Z,24.90
2022-09-27T17:56:42.193Z,20.15
2022-09-27T17:59:11.068Z,23.58
2022-09-27T18:01:39.063Z,22.02
2022-09-27T18:04:11.521Z,21.08
2022-09-27T18:06:40.381Z,23.42
2022-09-27T18:09:09.315Z,20.02
2022-09-27T18:11:37.250Z,18.27
2022-09-27T18:14:04.731Z,19.48
2022-09-27T18:16:36.747Z,19.63
2022-09-27T18:19:05.503Z,24.63
2022-09-27T18:21:32.341Z,20.38
2022-09-27T18:24:02.980Z,19.83
2022-09-27T18:26:29.850Z,22.95
2022-09-27T18:29:01.736Z,24.33
2022-09-27T18:31:28.363Z,24.23
2022-09-27T18:33:55.013Z,20.67
2022-09-27T18:36:24.544Z,20.45
2022-09-27T18:39:00.505Z,22.02
2022-09-27T18:41:29.116Z,20.58
2022-09-27T18:44:01.573Z,20.38
2022-09-27T18:46:35.558Z,24.38
2022-09-27T18:49:04.632Z,18.92
2022-09-27T18:51:31.723Z,20.65
2022-09-27T18:53:59.384Z,26.58
2022-09-27T18:56:27.915Z,24.92
2022-09-27T18:58:55.232Z,23.48
2022-09-27T19:01:23.630Z,24.13
2022-09-27T19:03:50.263Z,25.83
2022-09-27T19:06:19.155Z,27.13
2022-09-27T19:08:46.234Z,22.33
2022-09-27T19:11:18.019Z,27.38
2022-09-27T19:13:51.277Z,20.25
2022-09-27T19:16:21.002Z,28.17
2022-09-27T19:18:48.251Z,25.30
2022-09-27T19:21:18.039Z,23.13
2022-09-27T19:23:44.948Z,21.85
2022-09-27T19:26:14.592Z,22.23
2022-09-27T19:28:42.836Z,27.55
2022-09-27T19:31:13.480Z,27.95
2022-09-27T19:33:40.374Z,22.00
2022-09-27T19:36:11.650Z,24.05
2022-09-27T19:38:38.993Z,21.60
2022-09-27T19:41:08.974Z,22.35
2022-09-27T19:43:35.518Z,25.70
2022-09-27T19:46:07.097Z,24.65
2022-09-27T19:48:36.081Z,22.85
2022-09-27T19:51:02.654Z,24.92
2022-09-27T19:53:32.369Z,22.10
2022-09-27T19:56:04.670Z,23.50
2022-09-27T19:58:32.848Z,23.20
2022-09-27T20:01:02.144Z,25.33
2022-09-27T20:03:29.412Z,28.60
2022-09-27T20:05:57.473Z,65.63
2022-09-27T20:08:25.295Z,28.10
2022-09-27T20:11:03.765Z,26.55
2022-09-27T20:13:33.215Z,20.95
2022-09-27T20:16:08.462Z,25.13
2022-09-27T20:21:05.788Z,26.80
2022-09-27T20:23:34.123Z,23.63
2022-09-27T20:26:11.934Z,23.48
2022-09-27T20:28:46.886Z,31.05
2022-09-27T20:31:19.072Z,23.20
2022-09-27T20:33:46.972Z,24.33
2022-09-27T20:36:19.179Z,18.92
2022-09-27T20:38:48.173Z,23.55
2022-09-27T20:41:19.582Z,26.17
2022-09-27T20:43:47.522Z,26.65
2022-09-27T20:46:16.519Z,20.58
2022-09-27T20:48:43.783Z,21.80
2022-09-27T20:51:14.286Z,34.08
2022-09-27T20:53:42.530Z,21.25
2022-09-27T20:56:36.714Z,23.40
2022-09-27T20:59:09.418Z,23.52
2022-09-27T21:01:42.323Z,27.08
2022-09-27T21:04:09.930Z,23.98
2022-09-27T21:06:36.761Z,26.15
2022-09-27T21:09:05.897Z,17.60
2022-09-27T21:11:33.196Z,21.42
2022-09-27T21:14:00.102Z,22.88
2022-09-27T21:16:28.845Z,18.88
2022-09-27T21:18:56.893Z,23.88
2022-09-27T21:21:24.794Z,26.77
2022-09-27T21:23:59.672Z,24.25
2022-09-27T21:26:28.499Z,20.75
2022-09-27T21:28:57.555Z,21.25
2022-09-27T21:31:29.984Z,26.65
2022-09-27T21:33:59.269Z,21.70
2022-09-27T21:36:31.045Z,21.23
2022-09-27T21:38:58.074Z,20.88
2022-09-27T21:41:25.730Z,31.30
2022-09-27T21:43:53.251Z,21.63
2022-09-27T21:46:25.003Z,26.85
2022-09-27T21:48:59.665Z,21.55
2022-09-27T21:51:28.995Z,19.25
2022-09-27T21:54:03.781Z,22.13
2022-09-27T21:56:33.231Z,25.23
2022-09-27T21:58:59.798Z,25.05
2022-09-27T22:01:29.743Z,26.15
2022-09-27T22:03:57.311Z,24.42
2022-09-27T22:06:26.713Z,23.48
2022-09-27T22:08:54.312Z,23.88
2022-09-27T22:11:26.572Z,23.05
2022-09-27T22:13:53.255Z,24.63
2022-09-27T22:16:21.582Z,22.40
2022-09-27T22:18:53.906Z,27.88
2022-09-27T22:21:26.205Z,21.65
2022-09-27T22:23:57.932Z,23.98
2022-09-27T22:26:27.725Z,21.98
2022-09-27T22:28:54.971Z,24.52
2022-09-27T22:31:23.228Z,20.83
2022-09-27T22:33:54.778Z,22.55
2022-09-27T22:36:22.283Z,22.05
2022-09-27T22:38:49.552Z,21.58
2022-09-27T22:41:16.360Z,24.60
2022-09-27T22:43:43.272Z,23.80
2022-09-27T22:46:10.334Z,19.27
2022-09-27T22:48:37.248Z,20.25
2022-09-27T22:51:04.600Z,20.63
2022-09-27T22:53:32.158Z,22.88
2022-09-27T22:56:04.231Z,21.48
2022-09-27T22:58:33.085Z,25.58
2022-09-27T23:01:06.878Z,23.40
2022-09-27T23:03:33.508Z,19.35
2022-09-27T23:06:04.410Z,22.48
2022-09-27T23:08:35.388Z,27.50
2022-09-27T23:11:19.501Z,25.15
2022-09-27T23:13:48.145Z,19.42
2022-09-27T23:16:17.423Z,34.15
2022-09-27T23:18:44.967Z,19.90
2022-09-27T23:21:13.392Z,30.52
2022-09-27T23:23:42.567Z,23.58
2022-09-27T23:26:11.945Z,28.20
2022-09-27T23:28:39.585Z,22.58
2022-09-27T23:31:10.427Z,30.02
2022-09-27T23:33:40.428Z,21.30
2022-09-27T23:36:12.244Z,20.23
2022-09-27T23:38:40.390Z,24.60
2022-09-27T23:41:08.323Z,27.60
2022-09-27T23:43:36.194Z,24.40
2022-09-27T23:46:04.817Z,23.73
2022-09-27T23:48:31.424Z,22.25
2022-09-27T23:50:57.963Z,22.10
2022-09-27T23:53:24.945Z,23.58
2022-09-27T23:56:13.067Z,22.73
2022-09-27T23:58:42.123Z,26.17
